Pagina principale
METAR-TAF:

METAR-TAF

Aeroporti :

Aeroporto di Friedrichshafen

Friedrichshafen, Germania

latitudine: 47-40N, longitudine: 009-31E, altezza: 416 m

Osservazione

Il bollettino è stato emesso 26 minuti fa, alle 23:20 UTC
Vento 6 kt da nord/nord-est
Temperature 15°C
Umidità 77%
Pressione 1021 hPa
Visibilità 10 km o più

METAR: EDNY 162320Z AUTO 02006KT 9999 // NCD 15/11 Q1021

Ora: 01:46 (23:46 UTC)

Previsione

Il bollettino è stato emesso 46 minuti fa, alle 23:00 UTC
Previsione valida dal 17 alle 00 UTC al 17 alle 24 UTC
Vento 7 kt da nord/nord-est
Visibilità 10 km o più
nessuna nube inferiore a 1500 m e nessun cumulonembo

TAF: EDNY 162300Z 1700/1724 03007KT CAVOK

Osservazioni e previsioni meteorologiche di più di 4000 aeroporti (messaggi METAR e TAF).

Le stazioni disponibili sono rappresentate dai dischi gialli e rossi sulla carta.

Puntare il mouse per vedere il nome della stazione.

Clicca sopra per visualizzare le osservazioni e previsioni meteorologiche.

Per cambiare la mappa : fare clic sui pulsanti verdi con una croce nera per ingrandire, il pulsante verde con un trattino per diminuire, o sulla freccia verde per le mappe adiacenti.


METAR-TAF: